Time;durP1;ratioP1;P1;durP2;ratioP2;P2;SDS_P1;SDS_P2;PMS_P1;PMS_P2;Temp;Humidity;BMP_temperature;BMP_pressure;BME280_temperature;BME280_humidity;BME280_pressure;Samples;Min_cycle;Max_cycle;Signal;HPM_P1;HPM_P2
2022/04/09 00:02:18;;;;;;;10.50;5.00;;;;;;;11.05;100.00;99260.34;4944112;23;10002030;-64
2022/04/09 00:04:43;;;;;;;7.70;4.80;;;;;;;11.26;100.00;99298.44;5017684;28;20110;-64
2022/04/09 00:07:09;;;;;;;10.13;4.80;;;;;;;10.95;100.00;99303.09;5036102;28;20065;-64
2022/04/09 00:09:35;;;;;;;7.53;4.80;;;;;;;10.86;100.00;99231.44;5051255;28;20040;-64
2022/04/09 00:12:00;;;;;;;9.10;4.60;;;;;;;10.94;100.00;99295.53;5050567;28;20040;-63
2022/04/09 00:14:26;;;;;;;7.55;4.40;;;;;;;11.32;100.00;99294.78;5050741;28;20028;-64
2022/04/09 00:16:51;;;;;;;8.38;4.82;;;;;;;11.32;100.00;99292.25;5050506;28;20032;-64
2022/04/09 00:19:17;;;;;;;7.45;5.30;;;;;;;11.20;100.00;99277.50;5050424;28;20032;-64
2022/04/09 00:21:42;;;;;;;8.35;5.20;;;;;;;10.87;100.00;99268.72;5050291;28;20029;-63
2022/04/09 00:24:08;;;;;;;8.50;4.78;;;;;;;11.16;100.00;99293.78;5050538;28;20028;-64
2022/04/09 00:26:33;;;;;;;6.32;4.65;;;;;;;11.29;100.00;99218.56;5049408;28;20025;-64
2022/04/09 00:28:59;;;;;;;6.65;4.45;;;;;;;11.03;100.00;99216.34;5030584;28;20067;-64
2022/04/09 00:31:24;;;;;;;6.32;4.38;;;;;;;11.22;100.00;99284.19;5030457;28;20025;-64
2022/04/09 00:33:50;;;;;;;8.13;4.53;;;;;;;11.41;100.00;99263.84;5012119;28;20095;-63
2022/04/09 00:36:16;;;;;;;9.07;4.57;;;;;;;11.03;100.00;99265.47;5030589;28;20026;-64
2022/04/09 00:38:41;;;;;;;7.85;4.68;;;;;;;11.08;100.00;99271.22;5030591;28;20515;-64
2022/04/09 00:41:10;;;;;;;9.80;4.30;;;;;;;11.56;100.00;99273.41;5029880;28;20108;-64
2022/04/09 00:43:40;;;;;;;5.93;4.03;;;;;;;11.03;100.00;99279.91;5030290;28;20018;-65
2022/04/09 00:46:06;;;;;;;7.70;3.97;;;;;;;10.36;100.00;99178.41;5030135;28;20026;-64
2022/04/09 00:48:31;;;;;;;7.75;3.67;;;;;;;10.54;100.00;99219.25;5011774;28;20128;-64
2022/04/09 00:50:56;;;;;;;4.78;3.40;;;;;;;11.23;100.00;99280.72;5012695;28;20475;-65
2022/04/09 00:53:25;;;;;;;7.22;3.30;;;;;;;11.17;100.00;99291.16;5039564;28;20041;-64
2022/04/09 00:58:38;;;;;;;6.05;3.30;;;;;;;10.72;100.00;99248.97;5049987;28;20171;-65
2022/04/09 01:01:04;;;;;;;5.90;3.15;;;;;;;10.70;100.00;99177.88;5049948;28;20029;-65
2022/04/09 01:03:33;;;;;;;4.70;3.17;;;;;;;11.01;100.00;99292.69;5035448;28;20431;-65
2022/04/09 01:05:58;;;;;;;6.80;3.53;;;;;;;11.33;100.00;99286.25;5030098;28;20029;-65
2022/04/09 01:08:24;;;;;;;6.97;3.25;;;;;;;11.04;100.00;99248.50;5030170;28;20079;-65
2022/04/09 01:10:52;;;;;;;6.80;3.63;;;;;;;10.54;100.00;99239.56;5030909;28;20080;-65
2022/04/09 01:13:19;;;;;;;4.80;3.17;;;;;;;10.97;100.00;99287.81;5033445;28;20091;-65
2022/04/09 01:15:44;;;;;;;5.85;3.35;;;;;;;11.06;100.00;99295.03;5047003;28;20037;-64
2022/04/09 01:18:11;;;;;;;6.10;3.35;;;;;;;10.64;100.00;99226.41;5053657;28;20107;-65
2022/04/09 01:20:36;;;;;;;6.82;3.42;;;;;;;10.54;100.00;99186.22;5053733;28;20029;-64
2022/04/09 01:23:01;;;;;;;6.95;3.42;;;;;;;11.02;100.00;99256.19;5053598;28;20025;-65
2022/04/09 01:25:27;;;;;;;8.55;3.72;;;;;;;10.68;100.00;99288.13;5053705;28;20461;-65
2022/04/09 01:27:52;;;;;;;7.32;3.75;;;;;;;11.00;100.00;99265.59;5053419;28;20459;-64
2022/04/09 01:30:19;;;;;;;8.05;4.35;;;;;;;10.83;100.00;99292.63;5053220;28;20033;-64
2022/04/09 01:32:45;;;;;;;5.18;3.60;;;;;;;10.28;100.00;99255.84;5053181;28;20422;-65
2022/04/09 01:35:11;;;;;;;6.90;3.70;;;;;;;10.54;100.00;99290.41;5053255;28;21425;-65
2022/04/09 01:37:36;;;;;;;6.13;3.65;;;;;;;10.26;100.00;99276.19;5053126;28;20036;-64
2022/04/09 01:40:02;;;;;;;7.60;4.00;;;;;;;9.56;100.00;99216.22;5053280;28;20170;-65
2022/04/09 01:42:27;;;;;;;6.50;3.40;;;;;;;10.10;100.00;99275.13;5053082;28;20021;-65
2022/04/09 01:44:53;;;;;;;6.50;3.78;;;;;;;9.83;100.00;99288.78;5035214;28;20040;-63
2022/04/09 01:47:19;;;;;;;7.65;3.53;;;;;;;9.91;100.00;99241.13;5052995;28;20029;-63
2022/04/09 01:49:44;;;;;;;5.80;3.38;;;;;;;10.11;100.00;99270.88;5053328;28;20029;-63
2022/04/09 01:52:09;;;;;;;7.05;3.65;;;;;;;9.80;100.00;99230.53;5052930;28;20033;-64
2022/04/09 01:54:35;;;;;;;5.18;3.80;;;;;;;9.96;100.00;99228.25;5053194;28;20048;-64
2022/04/09 01:57:01;;;;;;;7.35;4.05;;;;;;;9.37;100.00;99169.53;5031965;28;20033;-64
2022/04/09 01:59:26;;;;;;;8.88;4.15;;;;;;;9.58;100.00;99164.53;5033083;28;20026;-64
2022/04/09 02:01:51;;;;;;;5.38;3.67;;;;;;;10.11;100.00;99213.28;5033013;28;20411;-64
2022/04/09 02:04:17;;;;;;;6.75;4.00;;;;;;;9.72;100.00;99176.72;5033370;28;20025;-64
2022/04/09 02:06:43;;;;;;;5.72;3.95;;;;;;;10.37;100.00;99202.13;5033001;28;20040;-64
2022/04/09 02:09:11;;;;;;;6.32;3.90;;;;;;;10.87;100.00;99261.09;5032931;28;20108;-64
2022/04/09 02:11:39;;;;;;;5.50;3.78;;;;;;;10.53;100.00;99254.00;5032894;28;20547;-64
2022/04/09 02:14:06;;;;;;;7.00;3.65;;;;;;;9.89;100.00;99156.56;5032619;28;20064;-64
2022/04/09 02:16:31;;;;;;;6.55;3.67;;;;;;;10.21;100.00;99206.16;5032739;28;20053;-64
2022/04/09 02:18:57;;;;;;;6.22;3.80;;;;;;;10.60;100.00;99260.47;5032979;28;20132;-64
2022/04/09 02:21:22;;;;;;;9.30;3.70;;;;;;;10.56;100.00;99237.81;5032284;28;20026;-64
2022/04/09 02:23:48;;;;;;;13.85;4.15;;;;;;;10.90;100.00;99261.78;5032651;28;20041;-64
2022/04/09 02:26:13;;;;;;;5.63;3.72;;;;;;;10.35;100.00;99212.34;5032796;28;20021;-64
2022/04/09 02:28:38;;;;;;;7.18;4.30;;;;;;;10.19;100.00;99193.50;5032297;28;20099;-64
2022/04/09 02:31:04;;;;;;;9.27;4.18;;;;;;;10.81;100.00;99239.28;5014576;28;20040;-64
2022/04/09 02:33:29;;;;;;;7.68;3.95;;;;;;;10.70;100.00;99215.16;5032572;28;20037;-64
2022/04/09 02:35:55;;;;;;;6.82;3.70;;;;;;;10.88;100.00;99261.03;5032295;28;20075;-64
2022/04/09 02:38:20;;;;;;;6.88;3.70;;;;;;;10.99;100.00;99240.25;5032480;28;20041;-64
2022/04/09 02:40:46;;;;;;;5.05;3.88;;;;;;;10.77;100.00;99234.38;5032169;28;20500;-64
2022/04/09 02:43:11;;;;;;;7.15;4.00;;;;;;;10.01;100.00;99181.50;5032015;28;20032;-64
2022/04/09 02:45:37;;;;;;;6.05;4.10;;;;;;;10.25;100.00;99239.00;5014490;28;20040;-64
2022/04/09 02:48:03;;;;;;;6.18;4.15;;;;;;;9.92;100.00;99212.31;5032238;28;20419;-64
2022/04/09 02:50:29;;;;;;;6.95;4.20;;;;;;;10.56;100.00;99250.50;5032166;28;20025;-64
2022/04/09 02:52:54;;;;;;;5.43;3.75;;;;;;;10.42;100.00;99251.84;5032045;28;20041;-64
2022/04/09 02:55:20;;;;;;;6.05;4.00;;;;;;;10.27;100.00;99216.91;5031961;28;20393;-65
2022/04/09 02:57:45;;;;;;;9.93;4.10;;;;;;;10.06;100.00;99242.25;5013885;28;20029;-64
2022/04/09 03:00:12;;;;;;;6.97;3.97;;;;;;;10.06;100.00;99242.25;5031868;28;20474;-64
2022/04/09 03:02:41;;;;;;;5.43;4.00;;;;;;;10.18;100.00;99252.00;5010666;28;20475;-64
2022/04/09 03:05:07;;;;;;;7.68;4.10;;;;;;;9.84;100.00;99181.31;5020197;28;20052;-65
2022/04/09 03:07:32;;;;;;;8.60;4.20;;;;;;;9.85;100.00;99190.56;5030533;28;20091;-64
2022/04/09 03:09:58;;;;;;;7.03;3.90;;;;;;;10.28;100.00;99251.56;5031753;28;20617;-64
2022/04/09 03:12:23;;;;;;;6.25;4.07;;;;;;;9.80;100.00;99240.69;5031465;28;20033;-64
2022/04/09 03:14:49;;;;;;;7.10;5.03;;;;;;;9.65;100.00;99208.25;5032392;28;20052;-64
2022/04/09 03:17:14;;;;;;;5.68;3.75;;;;;;;9.60;100.00;99192.38;5032155;28;20495;-64
2022/04/09 03:19:39;;;;;;;9.20;4.90;;;;;;;9.85;100.00;99246.41;5031546;28;20041;-64
2022/04/09 03:22:05;;;;;;;7.03;3.83;;;;;;;9.36;100.00;99183.97;5031529;28;20061;-65
2022/04/09 03:24:30;;;;;;;7.63;3.88;;;;;;;9.76;100.00;99213.78;5031363;28;20025;-64
2022/04/09 03:26:56;;;;;;;9.65;4.35;;;;;;;9.81;100.00;99231.34;5031111;28;20082;-64
2022/04/09 03:29:21;;;;;;;10.70;6.03;;;;;;;9.52;100.00;99181.69;5030142;28;20055;-64
2022/04/09 03:31:47;;;;;;;11.02;5.80;;;;;;;9.53;100.00;99242.50;5031617;28;20033;-64
2022/04/09 03:34:12;;;;;;;8.18;5.03;;;;;;;9.83;100.00;99234.66;5030486;28;20041;-64
2022/04/09 03:36:38;;;;;;;7.72;4.30;;;;;;;9.50;100.00;99251.94;5031344;28;20029;-64
2022/04/09 03:39:04;;;;;;;7.47;4.57;;;;;;;9.05;100.00;99208.72;5031376;28;20105;-64
2022/04/09 03:41:30;;;;;;;7.82;4.57;;;;;;;8.79;100.00;99180.91;5031304;28;20119;-64
2022/04/09 03:43:55;;;;;;;11.02;5.25;;;;;;;9.16;100.00;99216.78;5031198;28;20091;-64
2022/04/09 03:46:21;;;;;;;8.55;5.70;;;;;;;9.18;100.00;99193.91;5031066;28;20587;-64
2022/04/09 03:48:46;;;;;;;11.48;5.35;;;;;;;9.31;100.00;99185.00;5031063;28;20033;-65
2022/04/09 03:51:12;;;;;;;13.38;5.82;;;;;;;9.04;100.00;99242.56;5029615;28;20138;-64
2022/04/09 03:53:38;;;;;;;13.88;6.10;;;;;;;9.41;100.00;99237.03;5030663;28;20033;-66
2022/04/09 03:56:04;;;;;;;10.32;5.22;;;;;;;8.47;100.00;99151.59;5028669;28;20116;-65
2022/04/09 03:58:30;;;;;;;9.45;4.68;;;;;;;8.69;100.00;99184.63;5030629;28;20480;-66
2022/04/09 04:00:55;;;;;;;7.43;4.80;;;;;;;8.62;100.00;99158.66;5030775;28;20030;-66
2022/04/09 04:03:21;;;;;;;7.10;4.75;;;;;;;9.13;100.00;99206.75;5043289;28;20041;-64
2022/04/09 04:05:49;;;;;;;9.60;4.45;;;;;;;9.99;100.00;99230.66;5050578;28;20051;-64
2022/04/09 04:08:15;;;;;;;8.38;4.07;;;;;;;9.98;100.00;99247.59;5050324;28;20043;-65
2022/04/09 04:10:41;;;;;;;11.85;4.40;;;;;;;9.65;100.00;99237.91;5050166;28;20029;-65
2022/04/09 04:13:07;;;;;;;8.73;4.00;;;;;;;9.60;100.00;99207.59;5050385;28;20400;-65
2022/04/09 04:15:33;;;;;;;8.52;4.70;;;;;;;9.80;100.00;99211.94;5050055;28;20108;-65
2022/04/09 04:17:58;;;;;;;9.70;4.93;;;;;;;9.75;100.00;99204.50;5032448;28;20036;-64
2022/04/09 04:20:24;;;;;;;10.63;5.18;;;;;;;9.78;100.00;99252.63;5049430;28;20028;-64
2022/04/09 04:22:53;;;;;;;13.38;7.18;;;;;;;9.35;100.00;99196.66;5049953;28;20522;-64
2022/04/09 04:25:19;;;;;;;13.38;7.53;;;;;;;9.90;100.00;99264.03;5049978;28;20487;-65
2022/04/09 04:27:46;;;;;;;12.45;7.70;;;;;;;10.36;100.00;99272.41;5050082;28;20021;-65
2022/04/09 04:30:13;;;;;;;11.48;7.38;;;;;;;10.08;100.00;99261.63;5050284;28;20029;-64
2022/04/09 04:32:38;;;;;;;16.80;9.25;;;;;;;10.14;100.00;99266.50;5050027;28;20029;-64
2022/04/09 04:35:04;;;;;;;15.23;9.70;;;;;;;10.01;100.00;99261.91;5049856;28;20029;-64
2022/04/09 04:37:56;;;;;;;18.92;11.57;;;;;;;10.53;100.00;99264.16;5049506;28;20028;-64
2022/04/09 04:40:21;;;;;;;17.63;10.05;;;;;;;10.20;100.00;99258.66;5044446;28;20466;-66
2022/04/09 04:42:49;;;;;;;13.93;8.00;;;;;;;10.24;100.00;99216.19;5031786;28;20036;-65
2022/04/09 04:45:14;;;;;;;14.18;7.95;;;;;;;10.75;100.00;99270.03;5050964;28;20090;-64
2022/04/09 04:47:46;;;;;;;11.10;6.72;;;;;;;10.46;100.00;99270.34;5052713;28;20392;-65
2022/04/09 04:50:13;;;;;;;13.75;7.57;;;;;;;10.96;100.00;99247.97;5052144;28;20083;-64
2022/04/09 04:52:39;;;;;;;14.82;8.27;;;;;;;11.35;100.00;99264.94;5052929;28;20099;-64
2022/04/09 04:55:05;;;;;;;13.10;8.55;;;;;;;10.63;100.00;99201.91;5052517;28;20486;-64
2022/04/09 04:57:50;;;;;;;13.00;8.27;;;;;;;10.89;100.00;99216.09;5052670;28;20024;-65
2022/04/09 05:00:19;;;;;;;18.33;9.35;;;;;;;11.24;100.00;99276.47;5047700;28;20464;-64
2022/04/09 05:02:44;;;;;;;13.48;6.90;;;;;;;11.27;100.00;99263.59;5036695;28;20518;-63
2022/04/09 05:05:10;;;;;;;10.23;6.35;;;;;;;11.12;100.00;99206.59;5037438;28;20100;-65
2022/04/09 05:07:46;;;;;;;9.73;6.55;;;;;;;11.51;100.00;99252.38;5042698;28;20043;-63
2022/04/09 05:10:17;;;;;;;11.65;7.13;;;;;;;10.70;100.00;99144.00;5036308;28;20030;-66
2022/04/09 05:12:43;;;;;;;12.20;6.00;;;;;;;11.71;100.00;99221.00;5046153;28;20026;-64
2022/04/09 05:15:11;;;;;;;11.55;6.10;;;;;;;12.13;100.00;99237.72;5015996;28;20186;-64
2022/04/09 05:17:37;;;;;;;11.60;7.35;;;;;;;12.38;100.00;99262.06;5015864;28;20029;-65
2022/04/09 05:20:07;;;;;;;10.32;5.72;;;;;;;11.82;100.00;99232.38;5033505;28;20065;-65
2022/04/09 05:22:33;;;;;;;16.45;6.13;;;;;;;11.33;100.00;99182.75;5040348;28;20063;-65
2022/04/09 05:24:59;;;;;;;10.95;5.97;;;;;;;12.02;100.00;99188.16;5052231;28;20056;-67
2022/04/09 05:27:25;;;;;;;10.07;4.90;;;;;;;12.47;100.00;99249.69;5052352;28;20029;-67
2022/04/09 05:29:51;;;;;;;11.07;5.03;;;;;;;12.04;100.00;99232.22;5052293;28;20481;-68
2022/04/09 05:32:17;;;;;;;8.85;5.00;;;;;;;12.22;100.00;99212.69;5052334;28;20029;-66
2022/04/09 05:34:43;;;;;;;8.43;4.63;;;;;;;11.97;100.00;99170.53;5052703;28;20032;-66
2022/04/09 05:37:10;;;;;;;7.70;3.97;;;;;;;12.98;100.00;99224.22;5052193;28;20521;-64
2022/04/09 05:39:35;;;;;;;13.27;4.07;;;;;;;12.84;100.00;99129.69;5052592;28;20043;-65
2022/04/09 05:42:01;;;;;;;6.78;4.05;;;;;;;12.32;100.00;99132.38;5052325;28;20033;-65
2022/04/09 05:44:27;;;;;;;10.35;5.35;;;;;;;13.17;100.00;99169.72;5052157;28;20032;-64
2022/04/09 05:46:52;;;;;;;10.30;5.30;;;;;;;13.87;100.00;99200.84;5052229;28;20117;-64
2022/04/09 05:49:18;;;;;;;8.55;4.70;;;;;;;13.64;100.00;99176.56;5052032;28;20037;-64
2022/04/09 05:51:44;;;;;;;9.02;4.75;;;;;;;13.89;100.00;99227.97;5051502;28;20068;-65
2022/04/09 05:54:09;;;;;;;10.52;5.57;;;;;;;13.82;100.00;99157.69;5052278;28;20045;-64
2022/04/09 05:56:36;;;;;;;10.35;5.25;;;;;;;14.61;100.00;99181.38;5051185;28;20400;-66
2022/04/09 05:59:02;;;;;;;7.70;4.95;;;;;;;14.77;100.00;99164.25;5052001;28;20068;-65
2022/04/09 06:01:28;;;;;;;10.43;5.70;;;;;;;15.69;100.00;99186.03;5051844;28;20032;-63
2022/04/09 06:03:55;;;;;;;9.48;5.55;;;;;;;15.11;100.00;99202.31;5045964;28;20042;-64
2022/04/09 06:06:21;;;;;;;10.25;6.95;;;;;;;14.76;100.00;99229.13;5033039;28;20029;-64
2022/04/09 06:08:47;;;;;;;10.15;5.72;;;;;;;14.39;100.00;99215.03;5031893;28;20036;-64
2022/04/09 06:11:13;;;;;;;10.50;5.15;;;;;;;13.89;100.00;99158.16;5032672;28;20029;-64
2022/04/09 06:13:39;;;;;;;13.27;6.10;;;;;;;13.73;100.00;99163.28;5031646;28;20052;-65
2022/04/09 06:16:08;;;;;;;9.35;5.55;;;;;;;14.69;100.00;99182.59;5033977;28;20033;-64
2022/04/09 06:18:35;;;;;;;8.70;4.60;;;;;;;15.28;100.00;99217.50;5052629;28;20036;-65
2022/04/09 06:21:01;;;;;;;9.23;4.72;;;;;;;15.97;100.00;99209.03;5052627;28;20438;-65
2022/04/09 06:23:26;;;;;;;7.68;4.00;;;;;;;15.05;100.00;99218.03;5034163;28;20033;-65
2022/04/09 06:25:52;;;;;;;9.35;4.72;;;;;;;15.46;100.00;99161.81;5051442;28;20029;-65
2022/04/09 06:28:17;;;;;;;11.20;4.57;;;;;;;15.75;100.00;99208.72;5051916;28;20035;-65
2022/04/09 06:30:42;;;;;;;8.35;3.97;;;;;;;15.42;100.00;99196.22;5051931;28;20498;-65
2022/04/09 06:33:08;;;;;;;8.90;3.38;;;;;;;15.22;100.00;99191.41;5033380;28;20495;-65
2022/04/09 06:35:33;;;;;;;8.48;3.90;;;;;;;14.63;100.00;99208.53;5051565;28;20116;-65
2022/04/09 06:37:59;;;;;;;8.02;3.65;;;;;;;15.31;100.00;99227.53;5051662;28;20032;-65
2022/04/09 06:40:28;;;;;;;11.60;5.95;;;;;;;15.72;100.00;99219.16;5052106;28;20025;-65
2022/04/09 06:42:53;;;;;;;6.85;4.25;;;;;;;15.72;100.00;99227.66;5051908;28;20115;-65
2022/04/09 06:45:19;;;;;;;7.30;5.40;;;;;;;15.89;100.00;99203.56;5052232;28;20115;-66
2022/04/09 06:47:47;;;;;;;11.98;4.68;;;;;;;15.99;100.00;99166.16;5052389;28;20025;-65
2022/04/09 06:50:13;;;;;;;9.27;3.90;;;;;;;15.89;100.00;99226.63;5052277;28;20029;-65
2022/04/09 06:52:40;;;;;;;6.35;3.78;;;;;;;16.70;100.00;99207.78;5033824;28;20037;-65
2022/04/09 06:55:09;;;;;;;7.65;4.35;;;;;;;16.68;100.00;99153.94;5034021;28;20025;-65
2022/04/09 06:57:35;;;;;;;5.90;3.20;;;;;;;16.52;100.00;99225.16;5052088;28;20509;-65
2022/04/09 07:00:03;;;;;;;5.28;2.83;;;;;;;15.75;100.00;99245.41;5051786;28;20025;-65
2022/04/09 07:02:28;;;;;;;5.10;2.85;;;;;;;15.82;100.00;99233.06;5033610;28;20507;-64
2022/04/09 07:04:54;;;;;;;6.35;2.92;;;;;;;16.16;100.00;99173.63;5051775;28;20116;-65
2022/04/09 07:07:24;;;;;;;5.63;2.90;;;;;;;17.87;100.00;99229.72;5051885;28;20021;-65
2022/04/09 07:09:50;;;;;;;7.35;3.60;;;;;;;17.00;92.94;99187.75;5051946;28;20131;-68
2022/04/09 07:12:16;;;;;;;7.93;3.35;;;;;;;16.12;100.00;99237.09;5051678;28;20163;-65
2022/04/09 07:14:43;;;;;;;8.35;3.65;;;;;;;16.20;100.00;99188.72;5051919;28;20059;-65
2022/04/09 07:17:08;;;;;;;6.50;3.63;;;;;;;16.30;100.00;99179.50;5051612;28;20033;-64
2022/04/09 07:19:34;;;;;;;6.13;3.72;;;;;;;16.81;100.00;99236.97;5051515;28;20029;-65
2022/04/09 07:21:59;;;;;;;6.65;3.20;;;;;;;17.81;100.00;99233.56;5051248;28;20041;-65
2022/04/09 07:24:25;;;;;;;8.65;3.35;;;;;;;17.70;100.00;99236.06;5045170;28;20043;-65
2022/04/09 07:26:50;;;;;;;7.05;3.35;;;;;;;18.37;96.42;99224.41;5050395;28;20040;-65
2022/04/09 07:29:16;;;;;;;10.63;3.17;;;;;;;18.59;90.67;99234.84;5035892;28;20331;-64
2022/04/09 07:31:42;;;;;;;13.90;4.07;;;;;;;18.33;86.86;99224.72;5013879;28;20025;-65
2022/04/09 07:34:07;;;;;;;13.15;3.50;;;;;;;19.23;84.45;99230.06;5013378;28;20068;-65
2022/04/09 07:36:33;;;;;;;7.47;3.00;;;;;;;18.62;84.87;99179.72;5031113;28;20030;-64
2022/04/09 07:38:58;;;;;;;7.68;3.20;;;;;;;19.02;78.34;99139.72;5035615;28;20471;-65
2022/04/09 07:41:24;;;;;;;8.05;2.70;;;;;;;19.08;76.78;99226.03;5029084;28;20045;-64
2022/04/09 07:43:49;;;;;;;15.73;3.30;;;;;;;19.39;74.58;99231.38;5042835;28;20064;-63
2022/04/09 07:46:15;;;;;;;6.50;2.85;;;;;;;19.09;73.25;99230.28;5030409;28;20037;-64
2022/04/09 07:48:40;;;;;;;6.88;2.85;;;;;;;19.13;73.85;99187.88;5013615;28;20484;-64
2022/04/09 07:51:06;;;;;;;7.75;3.03;;;;;;;18.55;74.16;99212.81;5031139;28;20411;-64
2022/04/09 07:53:31;;;;;;;7.68;2.63;;;;;;;19.27;71.98;99195.41;5031040;28;20407;-64
2022/04/09 07:55:57;;;;;;;4.95;2.30;;;;;;;19.07;71.59;99162.56;5030758;28;20037;-64
2022/04/09 07:58:22;;;;;;;8.82;2.67;;;;;;;19.98;70.08;99207.91;5018327;28;20043;-65
2022/04/09 08:00:49;;;;;;;7.38;2.60;;;;;;;19.84;68.30;99129.00;5038310;28;20037;-64
2022/04/09 08:03:14;;;;;;;7.82;3.30;;;;;;;20.65;66.86;99202.41;5041803;28;20045;-64
2022/04/09 08:05:39;;;;;;;6.53;2.92;;;;;;;19.73;66.98;99188.34;5023074;28;20075;-64
2022/04/09 08:08:07;;;;;;;8.10;3.13;;;;;;;19.84;67.50;99165.13;5036278;28;20041;-64
2022/04/09 08:10:33;;;;;;;9.63;2.95;;;;;;;20.80;66.90;99196.94;5012768;28;20066;-65
2022/04/09 08:12:59;;;;;;;4.85;2.65;;;;;;;20.39;64.37;99184.78;5030709;28;20087;-63
2022/04/09 08:15:25;;;;;;;5.45;2.88;;;;;;;20.45;64.48;99203.19;5039544;28;20036;-63
2022/04/09 08:17:54;;;;;;;8.45;2.88;;;;;;;20.18;64.27;99183.91;5050634;28;20032;-63
2022/04/09 08:20:20;;;;;;;10.75;3.00;;;;;;;20.07;67.95;99171.84;5032277;28;20550;-63
2022/04/09 08:22:46;;;;;;;9.27;2.95;;;;;;;21.56;64.33;99181.81;5050425;28;20124;-63
2022/04/09 08:25:12;;;;;;;5.68;2.58;;;;;;;20.36;64.71;99198.75;5030221;28;20120;-64
2022/04/09 08:27:38;;;;;;;6.97;3.13;;;;;;;21.63;63.98;99177.72;5043240;28;20021;-63
2022/04/09 08:30:06;;;;;;;4.63;2.40;;;;;;;21.93;62.85;99180.28;5030941;28;20036;-63
2022/04/09 08:32:32;;;;;;;5.40;2.53;;;;;;;21.65;62.10;99190.56;5030945;28;20060;-64
2022/04/09 08:34:58;;;;;;;5.63;2.90;;;;;;;21.52;64.36;99136.44;5049468;28;20075;-64
2022/04/09 08:37:24;;;;;;;5.93;2.50;;;;;;;22.31;61.56;99177.72;5048769;28;20582;-65
2022/04/09 08:39:50;;;;;;;7.93;2.65;;;;;;;20.87;63.75;99121.34;5048607;28;20087;-65
2022/04/09 08:42:16;;;;;;;8.77;2.70;;;;;;;23.11;60.21;99130.66;5048849;28;20507;-65
2022/04/09 08:44:41;;;;;;;4.72;2.60;;;;;;;21.39;60.93;99141.84;5048088;28;20037;-64
2022/04/09 08:47:08;;;;;;;7.32;2.10;;;;;;;21.35;63.12;99131.91;5048275;28;20025;-64
2022/04/09 08:49:40;;;;;;;4.05;2.45;;;;;;;21.45;61.24;99143.91;5048290;28;20025;-64
2022/04/09 08:52:09;;;;;;;6.57;2.63;;;;;;;21.59;60.58;99083.22;5048285;28;20029;-65
2022/04/09 08:54:36;;;;;;;6.60;3.10;;;;;;;21.06;61.99;99146.47;5031041;28;20033;-64
2022/04/09 08:57:02;;;;;;;4.80;2.78;;;;;;;20.65;62.62;99087.91;5048989;28;20036;-65
2022/04/09 08:59:28;;;;;;;6.35;3.00;;;;;;;21.66;60.15;99104.19;5031177;28;20025;-64
2022/04/09 09:01:54;;;;;;;4.70;2.80;;;;;;;21.19;61.40;99118.66;5049106;28;20044;-64
2022/04/09 09:04:19;;;;;;;10.43;3.08;;;;;;;21.86;60.70;99077.41;5047495;28;20102;-65
2022/04/09 09:06:46;;;;;;;7.82;3.00;;;;;;;22.38;60.79;99113.25;5048954;28;20611;-64
2022/04/09 09:09:27;;;;;;;5.50;3.20;;;;;;;23.20;60.06;99137.56;5048824;28;20029;-65
2022/04/09 09:11:52;;;;;;;6.15;3.20;;;;;;;23.26;58.12;99129.22;5048111;28;20115;-65
2022/04/09 09:14:32;;;;;;;6.47;2.95;;;;;;;22.14;58.98;99100.72;5047789;28;20625;-65
2022/04/09 09:16:59;;;;;;;6.40;3.00;;;;;;;22.07;59.42;99135.03;5047980;28;20098;-65
2022/04/09 09:19:45;;;;;;;6.45;3.15;;;;;;;23.00;56.72;99092.75;5048388;28;20033;-64
2022/04/09 09:22:10;;;;;;;5.63;2.60;;;;;;;23.25;56.45;99104.25;5029905;28;20123;-64
2022/04/09 09:24:36;;;;;;;7.10;2.90;;;;;;;22.52;56.04;99111.97;5048079;28;20117;-64
2022/04/09 09:27:03;;;;;;;7.45;2.47;;;;;;;24.73;51.57;99058.53;5046868;28;20029;-65
2022/04/09 09:29:29;;;;;;;5.65;2.70;;;;;;;23.46;51.57;99102.25;5047787;28;20033;-64
2022/04/09 09:31:58;;;;;;;5.00;2.17;;;;;;;22.83;52.62;99090.91;5031061;28;20561;-64
2022/04/09 09:34:23;;;;;;;6.78;2.80;;;;;;;23.54;52.68;99067.78;5051568;28;20115;-64
2022/04/09 09:36:49;;;;;;;6.50;2.70;;;;;;;23.87;51.02;99061.91;5033091;28;20064;-64
2022/04/09 09:39:17;;;;;;;5.53;2.40;;;;;;;23.09;51.71;99059.97;5051239;28;20403;-65
2022/04/09 09:42:04;;;;;;;4.80;2.70;;;;;;;24.35;51.83;99096.13;5051059;28;20036;-64
2022/04/09 09:44:34;;;;;;;7.05;2.58;;;;;;;23.80;52.24;99111.06;5033281;28;20411;-66
2022/04/09 09:47:08;;;;;;;6.20;2.40;;;;;;;24.63;51.27;99032.59;5051444;28;20060;-65
2022/04/09 09:49:55;;;;;;;6.85;3.28;;;;;;;23.33;51.04;99065.47;5051764;28;20021;-66
2022/04/09 09:52:24;;;;;;;5.20;2.70;;;;;;;23.16;52.89;99061.00;5051868;28;20033;-65
2022/04/09 09:55:13;;;;;;;6.93;3.20;;;;;;;23.38;52.50;99055.44;5052200;28;20617;-65
2022/04/09 09:57:39;;;;;;;4.40;2.88;;;;;;;22.68;54.80;99089.72;5034082;28;20479;-65
2022/04/09 10:00:11;;;;;;;6.65;2.97;;;;;;;23.98;52.40;99005.38;5051967;28;20045;-67
2022/04/09 10:02:38;;;;;;;7.93;4.00;;;;;;;24.48;52.84;99049.72;5051450;28;20481;-66
2022/04/09 10:05:04;;;;;;;6.22;3.10;;;;;;;25.19;52.50;99063.28;5051651;28;20079;-66
2022/04/09 10:07:30;;;;;;;6.38;3.30;;;;;;;24.44;51.28;99060.59;5050428;28;20067;-67
2022/04/09 10:09:55;;;;;;;13.38;3.67;;;;;;;25.58;50.67;99060.94;5033804;28;20037;-69
2022/04/09 10:12:23;;;;;;;5.57;3.30;;;;;;;23.46;53.19;99023.56;5052003;28;20067;-68
2022/04/09 10:14:59;;;;;;;8.13;3.08;;;;;;;24.65;52.38;99011.66;5052069;28;20060;-70
2022/04/09 10:17:26;;;;;;;7.60;3.42;;;;;;;25.29;52.37;99052.72;5034649;28;20414;-67
2022/04/09 10:19:57;;;;;;;5.78;2.67;;;;;;;25.96;49.93;99054.31;5052606;28;20036;-67
2022/04/09 10:22:35;;;;;;;6.32;2.97;;;;;;;27.19;48.85;99051.13;5052219;28;20505;-67
2022/04/09 10:25:01;;;;;;;5.63;2.70;;;;;;;25.38;49.38;99025.72;5052173;28;20457;-70
2022/04/09 10:27:53;;;;;;;4.88;2.35;;;;;;;27.27;47.25;99043.25;5052292;28;20790;-69
2022/04/09 10:30:18;;;;;;;;;;;;;;;26.12;49.60;99038.69;5052512;28;20422;-68
2022/04/09 10:32:48;;;;;;;4.72;2.35;;;;;;;27.22;46.85;98955.97;5052162;28;19913;-67
2022/04/09 10:35:40;;;;;;;5.33;2.40;;;;;;;26.56;46.87;99012.03;5052460;28;20056;-66
2022/04/09 10:38:14;;;;;;;5.03;3.38;;;;;;;27.10;47.71;99030.44;5052116;28;20066;-67
2022/04/09 10:40:42;;;;;;;7.80;3.00;;;;;;;27.52;46.12;99024.84;5052195;28;20565;-67
2022/04/09 10:43:09;;;;;;;5.68;2.90;;;;;;;26.27;46.63;99019.63;5051809;28;20526;-65
2022/04/09 10:46:06;;;;;;;6.35;3.05;;;;;;;26.22;47.26;99014.09;5052068;28;20032;-66
2022/04/09 10:48:33;;;;;;;4.57;2.55;;;;;;;26.69;46.39;98959.34;5051998;28;20025;-66
2022/04/09 10:51:06;;;;;;;5.93;2.90;;;;;;;26.70;46.23;99005.34;5051860;28;20040;-66
2022/04/09 10:53:38;;;;;;;4.45;3.00;;;;;;;27.28;45.83;99002.28;5033921;28;20033;-65
2022/04/09 10:56:26;;;;;;;6.03;2.67;;;;;;;26.54;47.54;98950.63;5051714;28;20040;-66
2022/04/09 10:59:13;;;;;;;5.75;2.50;;;;;;;26.90;47.46;98993.50;5051904;28;20091;-64
2022/04/09 11:04:39;;;;;;;5.45;2.95;;;;;;;28.52;45.42;98978.19;5051602;28;20048;-67
2022/04/09 11:07:19;;;;;;;5.72;2.20;;;;;;;26.77;46.34;98972.38;5033570;28;20032;-65
2022/04/09 11:09:59;;;;;;;5.90;2.42;;;;;;;27.99;46.02;98974.00;5051246;28;20044;-64
2022/04/09 11:12:39;;;;;;;5.50;2.60;;;;;;;27.91;45.84;98971.44;5051814;28;20386;-64
2022/04/09 11:15:15;;;;;;;5.53;3.10;;;;;;;26.60;45.61;98916.81;5051146;28;20036;-64
2022/04/09 11:17:43;;;;;;;5.32;2.28;;;;;;;26.67;46.32;98903.09;5032265;28;20132;-64
2022/04/09 11:20:36;;;;;;;12.05;7.18;;;;;;;28.02;45.14;98970.22;5049106;28;20056;-65
2022/04/09 11:23:19;;;;;;;6.20;2.45;;;;;;;27.50;46.11;98930.16;5046345;28;20521;-65
2022/04/09 11:25:46;;;;;;;4.70;2.92;;;;;;;27.23;45.09;98915.84;5049788;28;20050;-64
2022/04/09 11:28:14;;;;;;;5.85;2.40;;;;;;;27.45;46.19;98957.63;5049782;28;20052;-64
2022/04/09 11:30:58;;;;;;;4.57;1.92;;;;;;;27.66;45.70;98961.38;5049727;28;20028;-64
2022/04/09 11:33:24;;;;;;;8.10;2.28;;;;;;;28.09;45.61;98900.53;5049769;28;20632;-64
2022/04/09 11:35:50;;;;;;;6.07;2.05;;;;;;;28.50;43.90;98943.56;5032012;28;20033;-64